createdAt,value
2023-04-30T00:00:50.535Z,95.50
2023-04-30T00:03:19.167Z,95.50
2023-04-30T00:05:51.571Z,95.50
2023-04-30T00:08:20.090Z,95.50
2023-04-30T00:10:50.066Z,95.50
2023-04-30T00:13:19.075Z,95.50
2023-04-30T00:15:47.621Z,95.50
2023-04-30T00:18:16.235Z,95.50
2023-04-30T00:20:44.750Z,95.50
2023-04-30T00:23:13.424Z,95.50
2023-04-30T00:25:41.883Z,95.60
2023-04-30T00:28:11.794Z,95.60
2023-04-30T00:30:40.357Z,95.60
2023-04-30T00:33:09.511Z,95.70
2023-04-30T00:35:38.131Z,95.60
2023-04-30T00:38:07.175Z,95.60
2023-04-30T00:40:36.113Z,95.60
2023-04-30T00:43:04.705Z,95.70
2023-04-30T00:45:34.560Z,95.70
2023-04-30T00:48:03.428Z,95.70
2023-04-30T00:50:32.200Z,95.70
2023-04-30T00:53:01.389Z,95.80
2023-04-30T00:55:30.512Z,95.80
2023-04-30T00:58:00.902Z,95.80
2023-04-30T01:00:29.955Z,95.90
2023-04-30T01:03:00.171Z,95.90
2023-04-30T01:05:28.906Z,95.90
2023-04-30T01:07:58.216Z,95.90
2023-04-30T01:10:36.541Z,95.90
2023-04-30T01:13:11.532Z,95.90
2023-04-30T01:15:55.491Z,95.90
2023-04-30T01:18:30.557Z,95.90
2023-04-30T01:21:05.437Z,95.90
2023-04-30T01:23:57.250Z,96.00
2023-04-30T01:26:46.130Z,95.90
2023-04-30T01:29:20.513Z,95.90
2023-04-30T01:31:49.099Z,95.90
2023-04-30T01:34:17.686Z,95.90
2023-04-30T01:37:02.161Z,95.90
2023-04-30T01:39:41.040Z,96.00
2023-04-30T01:42:14.859Z,95.90
2023-04-30T01:44:59.510Z,95.90
2023-04-30T01:47:38.680Z,96.00
2023-04-30T01:50:16.742Z,95.90
2023-04-30T01:52:48.459Z,95.90
2023-04-30T01:55:22.307Z,96.00
2023-04-30T01:57:57.507Z,96.00
2023-04-30T02:00:28.349Z,96.00
2023-04-30T02:02:57.494Z,96.10
2023-04-30T02:05:26.175Z,96.10
2023-04-30T02:07:54.691Z,96.10
2023-04-30T02:10:26.368Z,96.10
2023-04-30T02:12:55.137Z,96.10
2023-04-30T02:15:23.806Z,96.10
2023-04-30T02:17:53.848Z,96.10
2023-04-30T02:20:22.476Z,96.20
2023-04-30T02:22:51.046Z,96.20
2023-04-30T02:25:19.730Z,96.20
2023-04-30T02:27:50.484Z,96.20
2023-04-30T02:30:20.075Z,96.20
2023-04-30T02:32:49.210Z,96.30
2023-04-30T02:35:19.323Z,96.30
2023-04-30T02:37:47.835Z,96.30
2023-04-30T02:40:16.436Z,96.30
2023-04-30T02:42:44.941Z,96.40
2023-04-30T02:45:13.454Z,96.40
2023-04-30T02:47:42.136Z,96.50
2023-04-30T02:50:11.419Z,96.50
2023-04-30T02:52:41.481Z,96.50
2023-04-30T02:55:10.718Z,96.50
2023-04-30T02:57:39.206Z,96.50
2023-04-30T03:00:08.872Z,96.50
2023-04-30T03:02:37.882Z,96.60
2023-04-30T03:05:07.379Z,96.50
2023-04-30T03:07:36.076Z,96.50
2023-04-30T03:10:07.005Z,96.50
2023-04-30T03:12:35.583Z,96.60
2023-04-30T03:15:04.660Z,96.50
2023-04-30T03:17:33.179Z,96.50
2023-04-30T03:20:01.659Z,96.60
2023-04-30T03:22:30.204Z,96.60
2023-04-30T03:24:58.717Z,96.60
2023-04-30T03:27:28.648Z,96.60
2023-04-30T03:29:57.309Z,96.60
2023-04-30T03:32:25.951Z,96.60
2023-04-30T03:34:54.637Z,96.60
2023-04-30T03:37:23.134Z,96.70
2023-04-30T03:39:51.732Z,96.70
2023-04-30T03:42:20.443Z,96.70
2023-04-30T03:44:50.587Z,96.80
2023-04-30T03:47:19.337Z,96.70
2023-04-30T03:49:55.086Z,96.70
2023-04-30T03:52:24.598Z,96.70
2023-04-30T03:54:53.416Z,96.60
2023-04-30T03:57:22.464Z,96.70
2023-04-30T03:59:52.865Z,96.70
2023-04-30T04:02:22.366Z,96.70
2023-04-30T04:04:51.609Z,96.80
2023-04-30T04:07:20.403Z,96.80
2023-04-30T04:09:49.066Z,96.80
2023-04-30T04:12:17.729Z,96.80
2023-04-30T04:14:46.665Z,96.90
2023-04-30T04:17:16.827Z,97.00
2023-04-30T04:19:46.496Z,96.90
2023-04-30T04:22:15.829Z,96.90
2023-04-30T04:24:45.717Z,97.00
2023-04-30T04:27:17.798Z,97.00
2023-04-30T04:29:46.418Z,97.00
2023-04-30T04:32:16.979Z,97.00
2023-04-30T04:34:45.964Z,97.10
2023-04-30T04:37:14.884Z,97.10
2023-04-30T04:39:44.968Z,97.10
2023-04-30T04:42:13.866Z,97.20
2023-04-30T04:44:42.520Z,97.20
2023-04-30T04:47:12.624Z,97.30
2023-04-30T04:49:42.531Z,97.30
2023-04-30T04:52:11.017Z,97.40
2023-04-30T04:54:39.682Z,97.50
2023-04-30T04:57:08.344Z,97.60
2023-04-30T04:59:36.832Z,97.60
2023-04-30T05:02:05.421Z,97.70
2023-04-30T05:04:33.998Z,97.80
2023-04-30T05:07:03.949Z,97.90
2023-04-30T05:09:32.642Z,98.00
2023-04-30T05:12:02.216Z,98.10
2023-04-30T05:14:30.756Z,98.20
2023-04-30T05:16:59.384Z,98.30
2023-04-30T05:19:27.923Z,98.30
2023-04-30T05:21:56.434Z,98.40
2023-04-30T05:24:26.342Z,98.50
2023-04-30T05:26:54.847Z,98.70
2023-04-30T05:29:23.475Z,98.80
2023-04-30T05:31:52.122Z,98.90
2023-04-30T05:34:20.678Z,99.00
2023-04-30T05:36:49.227Z,99.20
2023-04-30T05:39:17.851Z,99.30
2023-04-30T05:41:48.926Z,99.50
2023-04-30T05:44:17.596Z,99.70
2023-04-30T05:46:46.190Z,99.70
2023-04-30T05:49:14.784Z,99.90
2023-04-30T05:51:43.523Z,99.90
2023-04-30T05:54:12.057Z,99.90
2023-04-30T05:56:40.556Z,99.90
2023-04-30T05:59:10.524Z,99.90
2023-04-30T06:01:39.076Z,99.90
2023-04-30T06:04:09.254Z,99.90
2023-04-30T06:06:37.841Z,99.90
2023-04-30T06:09:06.378Z,99.90
2023-04-30T06:11:34.912Z,99.90
2023-04-30T06:14:03.841Z,99.90
2023-04-30T06:16:33.890Z,99.90
2023-04-30T06:19:02.448Z,99.90
2023-04-30T06:21:31.901Z,99.90
2023-04-30T06:24:00.506Z,99.90
2023-04-30T06:26:29.108Z,99.90
2023-04-30T06:28:58.062Z,99.90
2023-04-30T06:31:26.616Z,99.90
2023-04-30T06:33:56.623Z,99.90
2023-04-30T06:36:25.276Z,99.90
2023-04-30T06:38:53.816Z,99.90
2023-04-30T06:41:22.292Z,99.90
2023-04-30T06:43:50.877Z,99.90
2023-04-30T06:46:19.495Z,99.90
2023-04-30T06:48:48.058Z,99.90
2023-04-30T06:51:17.992Z,99.90
2023-04-30T06:53:46.529Z,99.90
2023-04-30T06:56:15.128Z,99.90
2023-04-30T06:58:43.741Z,99.90
2023-04-30T07:01:12.293Z,99.90
2023-04-30T07:03:41.086Z,99.90
2023-04-30T07:06:09.764Z,99.90
2023-04-30T07:08:41.229Z,99.90
2023-04-30T07:11:09.747Z,99.90
2023-04-30T07:13:38.471Z,99.90
2023-04-30T07:16:09.952Z,99.90
2023-04-30T07:18:39.588Z,99.90
2023-04-30T07:21:08.457Z,99.90
2023-04-30T07:23:37.158Z,99.90
2023-04-30T07:26:07.188Z,99.90
2023-04-30T07:28:35.806Z,99.90
2023-04-30T07:31:04.377Z,99.90
2023-04-30T07:33:33.261Z,99.90
2023-04-30T07:36:01.783Z,99.90
2023-04-30T07:38:30.794Z,99.90
2023-04-30T07:40:59.414Z,99.90
2023-04-30T07:43:30.630Z,99.90
2023-04-30T07:46:00.551Z,99.90
2023-04-30T07:48:29.163Z,99.90
2023-04-30T07:50:57.885Z,99.90
2023-04-30T07:53:26.540Z,99.90
2023-04-30T07:55:55.136Z,99.90
2023-04-30T07:58:23.684Z,99.90
2023-04-30T08:00:56.397Z,99.90
2023-04-30T08:03:24.997Z,99.90
2023-04-30T08:05:54.208Z,99.90
2023-04-30T08:08:22.809Z,99.90
2023-04-30T08:10:51.333Z,99.90
2023-04-30T08:13:20.720Z,99.90
2023-04-30T08:15:49.273Z,99.90
2023-04-30T08:18:19.339Z,99.90
2023-04-30T08:20:48.539Z,99.90
2023-04-30T08:23:17.882Z,99.90
2023-04-30T08:25:46.485Z,99.90
2023-04-30T08:28:15.030Z,99.90
2023-04-30T08:30:43.547Z,99.90
2023-04-30T08:33:12.482Z,99.90
2023-04-30T08:35:42.453Z,99.90
2023-04-30T08:38:11.021Z,99.90
2023-04-30T08:40:50.927Z,99.90
2023-04-30T08:43:21.470Z,99.90
2023-04-30T08:45:52.188Z,99.90
2023-04-30T08:48:22.320Z,99.90
2023-04-30T08:50:52.339Z,99.90
2023-04-30T08:53:22.238Z,99.90
2023-04-30T08:55:51.159Z,99.90
2023-04-30T08:58:20.084Z,99.90
2023-04-30T09:00:48.578Z,99.90
2023-04-30T09:03:17.339Z,99.90
2023-04-30T09:05:46.120Z,99.90
2023-04-30T09:08:20.468Z,99.90
2023-04-30T09:10:49.012Z,99.90
2023-04-30T09:13:17.505Z,99.90
2023-04-30T09:15:46.706Z,99.90
2023-04-30T09:18:18.155Z,99.90
2023-04-30T09:21:08.253Z,99.90
2023-04-30T09:23:38.228Z,99.90
2023-04-30T09:26:06.878Z,99.90
2023-04-30T09:28:35.419Z,99.90
2023-04-30T09:31:04.070Z,99.90
2023-04-30T09:33:47.357Z,99.90
2023-04-30T09:36:16.264Z,99.90
2023-04-30T09:38:46.781Z,99.90
2023-04-30T09:41:27.210Z,99.90
2023-04-30T09:43:56.083Z,99.90
2023-04-30T09:46:32.360Z,99.90
2023-04-30T09:49:02.126Z,99.90
2023-04-30T09:51:31.064Z,99.90
2023-04-30T09:54:04.468Z,99.90
2023-04-30T09:56:39.421Z,99.90
2023-04-30T09:59:09.556Z,99.90
2023-04-30T10:01:40.854Z,99.90
2023-04-30T10:04:09.933Z,99.90
2023-04-30T10:06:39.361Z,99.90
2023-04-30T10:09:11.856Z,99.90
2023-04-30T10:11:42.316Z,99.80
2023-04-30T10:14:13.397Z,99.50
2023-04-30T10:16:49.011Z,99.30
2023-04-30T10:19:21.533Z,98.90
2023-04-30T10:21:51.136Z,98.50
2023-04-30T10:24:22.186Z,98.00
2023-04-30T10:26:51.214Z,97.30
2023-04-30T10:29:19.929Z,97.00
2023-04-30T10:31:50.256Z,96.70
2023-04-30T10:34:27.010Z,96.70
2023-04-30T10:36:59.099Z,96.70
2023-04-30T10:39:29.599Z,96.60
2023-04-30T10:42:05.225Z,96.10
2023-04-30T10:44:35.101Z,95.70
2023-04-30T10:47:05.271Z,95.40
2023-04-30T10:49:34.985Z,95.40
2023-04-30T10:52:04.984Z,95.20
2023-04-30T10:54:36.772Z,95.10
2023-04-30T10:57:14.258Z,95.00
2023-04-30T10:59:53.452Z,95.20
2023-04-30T11:02:22.597Z,95.10
2023-04-30T11:05:11.243Z,95.00
2023-04-30T11:07:49.688Z,95.10
2023-04-30T11:10:23.118Z,94.70
2023-04-30T11:12:53.344Z,94.10
2023-04-30T11:15:25.458Z,93.80
2023-04-30T11:17:58.680Z,93.80
2023-04-30T11:20:27.656Z,93.80
2023-04-30T11:23:14.241Z,93.90
2023-04-30T11:25:48.380Z,94.00
2023-04-30T11:28:20.674Z,93.80
2023-04-30T11:30:54.104Z,93.60
2023-04-30T11:33:23.659Z,93.40
2023-04-30T11:35:53.523Z,93.20
2023-04-30T11:38:23.689Z,93.00
2023-04-30T11:40:54.984Z,92.50
2023-04-30T11:43:27.502Z,92.10
2023-04-30T11:46:08.508Z,92.00
2023-04-30T11:48:39.064Z,91.60
2023-04-30T11:51:16.178Z,91.40
2023-04-30T11:53:46.868Z,90.70
2023-04-30T11:56:19.440Z,90.40
2023-04-30T11:58:48.831Z,90.50
2023-04-30T12:01:18.406Z,90.50
2023-04-30T12:03:48.657Z,90.60
2023-04-30T12:06:24.039Z,90.30
2023-04-30T12:08:54.347Z,89.70
2023-04-30T12:11:25.905Z,89.60
2023-04-30T12:13:56.334Z,89.60
2023-04-30T12:16:25.470Z,89.40
2023-04-30T12:18:54.136Z,89.10
2023-04-30T12:21:23.625Z,88.40
2023-04-30T12:23:52.258Z,87.80
2023-04-30T12:26:21.013Z,87.30
2023-04-30T12:28:51.196Z,85.80
2023-04-30T12:31:19.829Z,85.40
2023-04-30T12:33:58.038Z,85.30
2023-04-30T12:36:33.764Z,85.30
2023-04-30T12:39:08.679Z,85.30
2023-04-30T12:41:39.096Z,85.10
2023-04-30T12:44:20.058Z,85.00
2023-04-30T12:46:49.286Z,84.80
2023-04-30T12:49:25.783Z,84.80
2023-04-30T12:51:59.698Z,84.50
2023-04-30T12:54:29.764Z,83.80
2023-04-30T12:57:01.259Z,83.40
2023-04-30T12:59:31.961Z,83.00
2023-04-30T13:02:08.359Z,82.30
2023-04-30T13:04:37.110Z,81.40
2023-04-30T13:07:05.849Z,80.30
2023-04-30T13:09:35.107Z,79.50
2023-04-30T13:12:03.902Z,80.00
2023-04-30T13:14:34.613Z,80.40
2023-04-30T13:17:05.682Z,80.60
2023-04-30T13:19:34.728Z,80.60
2023-04-30T13:22:03.336Z,80.60
2023-04-30T13:24:32.189Z,80.60
2023-04-30T13:27:00.722Z,80.00
2023-04-30T13:29:29.268Z,78.90
2023-04-30T13:31:59.246Z,78.40
2023-04-30T13:34:27.815Z,78.20
2023-04-30T13:36:56.377Z,78.40
2023-04-30T13:39:24.951Z,78.80
2023-04-30T13:41:53.522Z,78.90
2023-04-30T13:44:22.322Z,79.10
2023-04-30T13:46:51.003Z,79.30
2023-04-30T13:49:21.195Z,79.30
2023-04-30T13:51:49.848Z,78.70
2023-04-30T13:54:18.397Z,78.30
2023-04-30T13:56:48.680Z,78.20
2023-04-30T13:59:17.358Z,78.30
2023-04-30T14:01:46.018Z,78.60
2023-04-30T14:04:15.159Z,78.70
2023-04-30T14:06:45.576Z,79.10
2023-04-30T14:09:14.196Z,77.80
2023-04-30T14:11:43.068Z,77.20
2023-04-30T14:14:11.648Z,76.80
2023-04-30T14:16:40.303Z,76.60
2023-04-30T14:19:09.044Z,76.10
2023-04-30T14:21:37.586Z,75.90
2023-04-30T14:24:08.104Z,75.80
2023-04-30T14:26:36.659Z,75.90
2023-04-30T14:29:05.173Z,76.10
2023-04-30T14:31:33.777Z,76.40
2023-04-30T14:34:02.408Z,76.20
2023-04-30T14:36:31.485Z,76.20
2023-04-30T14:39:00.017Z,76.30
2023-04-30T14:41:30.022Z,76.50
2023-04-30T14:43:58.635Z,76.10
2023-04-30T14:46:28.129Z,76.20
2023-04-30T14:48:57.372Z,76.50
2023-04-30T14:51:26.046Z,76.40
2023-04-30T14:53:54.549Z,76.20
2023-04-30T14:56:24.756Z,76.00
2023-04-30T14:58:54.852Z,75.80
2023-04-30T15:01:23.592Z,75.30
2023-04-30T15:03:53.145Z,74.90
2023-04-30T15:06:21.836Z,74.60
2023-04-30T15:08:50.573Z,74.40
2023-04-30T15:11:19.097Z,74.30
2023-04-30T15:13:48.258Z,74.40
2023-04-30T15:16:18.209Z,74.50
2023-04-30T15:18:47.114Z,75.10
2023-04-30T15:21:15.806Z,74.50
2023-04-30T15:23:44.396Z,74.60
2023-04-30T15:26:13.049Z,74.60
2023-04-30T15:28:41.657Z,74.50
2023-04-30T15:31:11.395Z,74.30
2023-04-30T15:33:42.140Z,74.00
2023-04-30T15:36:11.980Z,73.90
2023-04-30T15:38:40.641Z,73.60
2023-04-30T15:41:09.169Z,73.60
2023-04-30T15:43:37.815Z,73.30
2023-04-30T15:46:06.497Z,73.20
2023-04-30T15:48:35.168Z,73.10
2023-04-30T15:51:05.173Z,73.70
2023-04-30T15:53:33.783Z,73.10
2023-04-30T15:56:04.322Z,73.30
2023-04-30T15:58:32.991Z,73.50
2023-04-30T16:01:01.960Z,74.50
2023-04-30T16:03:30.746Z,73.80
2023-04-30T16:06:00.909Z,73.70
2023-04-30T16:08:31.127Z,73.30
2023-04-30T16:11:01.557Z,73.00
2023-04-30T16:13:30.118Z,72.70
2023-04-30T16:15:58.693Z,72.60
2023-04-30T16:18:29.783Z,72.40
2023-04-30T16:20:58.463Z,72.50
2023-04-30T16:23:27.222Z,72.50
2023-04-30T16:25:57.138Z,72.50
2023-04-30T16:28:28.268Z,72.40
2023-04-30T16:30:57.060Z,72.60
2023-04-30T16:33:26.058Z,72.60
2023-04-30T16:35:55.168Z,72.50
2023-04-30T16:38:23.933Z,72.50
2023-04-30T16:40:52.542Z,72.30
2023-04-30T16:43:22.538Z,72.20
2023-04-30T16:45:51.564Z,72.00
2023-04-30T16:48:20.203Z,72.20
2023-04-30T16:50:48.768Z,72.20
2023-04-30T16:53:17.368Z,72.20
2023-04-30T16:55:45.932Z,72.20
2023-04-30T16:58:14.494Z,72.20
2023-04-30T17:00:44.446Z,72.30
2023-04-30T17:03:13.114Z,72.20
2023-04-30T17:05:41.729Z,72.40
2023-04-30T17:08:10.412Z,72.50
2023-04-30T17:10:40.430Z,72.60
2023-04-30T17:13:09.059Z,72.80
2023-04-30T17:15:37.767Z,72.90
2023-04-30T17:18:09.572Z,72.80
2023-04-30T17:20:38.369Z,72.90
2023-04-30T17:23:06.964Z,72.70
2023-04-30T17:25:35.948Z,72.70
2023-04-30T17:28:04.719Z,72.70
2023-04-30T17:30:33.594Z,72.80
2023-04-30T17:33:02.253Z,73.60
2023-04-30T17:35:32.222Z,72.90
2023-04-30T17:38:01.353Z,72.90
2023-04-30T17:40:31.391Z,73.00
2023-04-30T17:43:00.053Z,73.10
2023-04-30T17:45:28.592Z,75.70
2023-04-30T17:47:57.240Z,74.00
2023-04-30T17:50:25.854Z,78.10
2023-04-30T17:52:55.942Z,75.30
2023-04-30T17:55:25.769Z,74.90
2023-04-30T17:57:54.441Z,74.60
2023-04-30T18:00:23.488Z,74.50
2023-04-30T18:02:52.205Z,74.40
2023-04-30T18:05:23.351Z,74.30
2023-04-30T18:07:51.926Z,74.40
2023-04-30T18:10:21.935Z,74.30
2023-04-30T18:12:51.109Z,74.20
2023-04-30T18:15:19.775Z,74.40
2023-04-30T18:17:48.409Z,74.30
2023-04-30T18:20:17.293Z,75.10
2023-04-30T18:22:45.954Z,74.40
2023-04-30T18:25:17.267Z,74.60
2023-04-30T18:27:47.526Z,75.20
2023-04-30T18:30:16.170Z,74.40
2023-04-30T18:32:45.031Z,74.40
2023-04-30T18:35:13.910Z,74.50
2023-04-30T18:37:42.610Z,74.40
2023-04-30T18:40:11.861Z,74.30
2023-04-30T18:42:40.478Z,74.50
2023-04-30T18:45:11.784Z,74.30
2023-04-30T18:47:40.362Z,74.40
2023-04-30T18:50:13.379Z,74.30
2023-04-30T18:52:42.202Z,74.40
2023-04-30T18:55:13.589Z,74.20
2023-04-30T18:57:43.359Z,74.40
2023-04-30T19:00:14.941Z,74.20
2023-04-30T19:02:44.183Z,74.50
2023-04-30T19:05:14.219Z,74.40
2023-04-30T19:07:42.868Z,74.40
2023-04-30T19:10:11.878Z,74.50
2023-04-30T19:12:40.611Z,74.40
2023-04-30T19:15:11.657Z,74.50
2023-04-30T19:17:41.944Z,74.60
2023-04-30T19:20:11.724Z,74.60
2023-04-30T19:22:40.840Z,74.70
2023-04-30T19:25:10.591Z,74.60
2023-04-30T19:27:39.221Z,74.70
2023-04-30T19:30:09.314Z,74.70
2023-04-30T19:32:38.089Z,74.80
2023-04-30T19:35:09.248Z,74.70
2023-04-30T19:37:37.937Z,74.90
2023-04-30T19:40:11.959Z,74.90
2023-04-30T19:42:40.789Z,75.10
2023-04-30T19:45:10.859Z,74.90
2023-04-30T19:47:39.654Z,74.90
2023-04-30T19:50:10.784Z,74.90
2023-04-30T19:52:39.439Z,75.20
2023-04-30T19:55:08.624Z,75.10
2023-04-30T19:57:37.268Z,75.20
2023-04-30T20:00:06.729Z,75.30
2023-04-30T20:02:38.432Z,75.30
2023-04-30T20:05:11.863Z,75.30
2023-04-30T20:07:40.577Z,75.40
2023-04-30T20:10:10.698Z,75.30
2023-04-30T20:12:39.482Z,75.60
2023-04-30T20:15:09.042Z,75.50
2023-04-30T20:17:37.875Z,75.70
2023-04-30T20:20:07.525Z,75.60
2023-04-30T20:22:37.693Z,75.70
2023-04-30T20:25:08.187Z,75.60
2023-04-30T20:27:37.073Z,75.90
2023-04-30T20:30:06.302Z,75.80
2023-04-30T20:32:35.590Z,75.90
2023-04-30T20:35:05.436Z,75.90
2023-04-30T20:37:34.344Z,76.10
2023-04-30T20:40:07.795Z,76.10
2023-04-30T20:42:36.563Z,76.40
2023-04-30T20:45:06.378Z,76.30
2023-04-30T20:47:35.047Z,76.40
2023-04-30T20:50:04.074Z,76.50
2023-04-30T20:52:32.729Z,76.60
2023-04-30T20:55:01.401Z,76.70
2023-04-30T20:57:31.500Z,76.70
2023-04-30T21:00:00.273Z,76.80
2023-04-30T21:02:29.161Z,76.90
2023-04-30T21:04:58.707Z,76.90
2023-04-30T21:07:27.552Z,77.00
2023-04-30T21:09:56.686Z,77.00
2023-04-30T21:12:25.665Z,77.20
2023-04-30T21:14:55.900Z,77.20
2023-04-30T21:17:24.603Z,77.50
2023-04-30T21:19:53.546Z,77.40
2023-04-30T21:22:22.295Z,77.40
2023-04-30T21:24:53.448Z,77.60
2023-04-30T21:27:23.223Z,77.70
2023-04-30T21:29:51.886Z,77.80
2023-04-30T21:32:22.022Z,77.80
2023-04-30T21:34:50.613Z,77.80
2023-04-30T21:37:19.259Z,77.80
2023-04-30T21:39:47.876Z,78.00
2023-04-30T21:42:16.486Z,78.00
2023-04-30T21:44:45.089Z,78.10
2023-04-30T21:47:13.766Z,78.10
2023-04-30T21:49:43.764Z,78.20
2023-04-30T21:52:12.388Z,78.30
2023-04-30T21:54:41.009Z,78.30
2023-04-30T21:57:09.575Z,78.30
2023-04-30T21:59:38.168Z,78.40
2023-04-30T22:02:16.460Z,78.40
2023-04-30T22:04:53.502Z,78.60
2023-04-30T22:07:22.770Z,78.60
2023-04-30T22:09:52.712Z,78.50
2023-04-30T22:12:24.928Z,79.40
2023-04-30T22:14:54.257Z,78.70
2023-04-30T22:17:22.973Z,78.90
2023-04-30T22:19:53.082Z,78.80
2023-04-30T22:22:22.002Z,78.90
2023-04-30T22:24:50.527Z,78.90
2023-04-30T22:27:19.391Z,78.90
2023-04-30T22:29:50.476Z,79.10
2023-04-30T22:32:19.490Z,79.20
2023-04-30T22:34:48.641Z,79.20
2023-04-30T22:37:18.564Z,80.20
2023-04-30T22:39:48.424Z,80.40
2023-04-30T22:42:17.387Z,80.30
2023-04-30T22:44:46.506Z,80.50
2023-04-30T22:47:15.404Z,80.40
2023-04-30T22:49:44.086Z,80.50
2023-04-30T22:52:12.773Z,80.50
2023-04-30T22:54:42.913Z,80.60
2023-04-30T22:57:11.455Z,80.80
2023-04-30T22:59:40.474Z,80.70
2023-04-30T23:02:09.181Z,80.80
2023-04-30T23:04:37.789Z,80.90
2023-04-30T23:07:06.485Z,80.90
2023-04-30T23:09:35.543Z,80.80
2023-04-30T23:12:05.819Z,81.20
2023-04-30T23:14:34.343Z,81.00
2023-04-30T23:17:03.233Z,81.10
2023-04-30T23:19:31.881Z,86.40
2023-04-30T23:22:00.452Z,82.90
2023-04-30T23:24:29.209Z,88.60
2023-04-30T23:26:58.251Z,84.20
2023-04-30T23:29:28.314Z,83.40
2023-04-30T23:31:56.834Z,83.20
2023-04-30T23:34:25.591Z,82.90
2023-04-30T23:36:54.134Z,82.80
2023-04-30T23:39:24.329Z,82.70
2023-04-30T23:41:53.237Z,82.50
2023-04-30T23:44:22.138Z,82.50
2023-04-30T23:46:52.176Z,82.60
2023-04-30T23:49:24.410Z,82.50
2023-04-30T23:51:53.123Z,82.50
2023-04-30T23:54:22.380Z,82.40
2023-04-30T23:56:51.499Z,82.50
2023-04-30T23:59:20.054Z,82.60
